sensor_id;sensor_type;location;lat;lon;timestamp;P1;durP1;ratioP1;P2;durP2;ratioP2
9200;SDS011;4635;48.686;9.008;2022-12-10T00:01:48;99.03;;;41.00;;
9200;SDS011;4635;48.686;9.008;2022-12-10T00:04:37;98.93;;;41.10;;
9200;SDS011;4635;48.686;9.008;2022-12-10T00:07:16;106.00;;;40.97;;
9200;SDS011;4635;48.686;9.008;2022-12-10T00:09:59;87.57;;;39.40;;
9200;SDS011;4635;48.686;9.008;2022-12-10T00:25:28;86.23;;;41.67;;
9200;SDS011;4635;48.686;9.008;2022-12-10T00:28:12;87.20;;;38.10;;
9200;SDS011;4635;48.686;9.008;2022-12-10T00:31:01;74.63;;;36.30;;
9200;SDS011;4635;48.686;9.008;2022-12-10T00:33:50;78.83;;;35.70;;
9200;SDS011;4635;48.686;9.008;2022-12-10T00:36:42;77.57;;;35.60;;
9200;SDS011;4635;48.686;9.008;2022-12-10T00:52:22;65.07;;;32.87;;
9200;SDS011;4635;48.686;9.008;2022-12-10T00:55:03;65.37;;;32.40;;
9200;SDS011;4635;48.686;9.008;2022-12-10T00:57:51;70.50;;;33.93;;
9200;SDS011;4635;48.686;9.008;2022-12-10T01:00:46;71.40;;;33.60;;
9200;SDS011;4635;48.686;9.008;2022-12-10T01:03:32;63.97;;;33.00;;
9200;SDS011;4635;48.686;9.008;2022-12-10T01:06:18;84.17;;;36.37;;
9200;SDS011;4635;48.686;9.008;2022-12-10T01:22:03;71.03;;;32.77;;
9200;SDS011;4635;48.686;9.008;2022-12-10T01:24:48;73.80;;;36.00;;
9200;SDS011;4635;48.686;9.008;2022-12-10T01:27:30;71.77;;;35.07;;
9200;SDS011;4635;48.686;9.008;2022-12-10T01:30:14;69.23;;;34.53;;
9200;SDS011;4635;48.686;9.008;2022-12-10T01:33:02;69.97;;;30.67;;
9200;SDS011;4635;48.686;9.008;2022-12-10T01:35:56;60.67;;;30.13;;
9200;SDS011;4635;48.686;9.008;2022-12-10T01:42:01;63.57;;;32.67;;
9200;SDS011;4635;48.686;9.008;2022-12-10T01:45:00;69.57;;;33.33;;
9200;SDS011;4635;48.686;9.008;2022-12-10T01:47:50;60.37;;;29.40;;
9200;SDS011;4635;48.686;9.008;2022-12-10T01:50:38;67.60;;;31.67;;
9200;SDS011;4635;48.686;9.008;2022-12-10T01:53:20;61.73;;;31.07;;
9200;SDS011;4635;48.686;9.008;2022-12-10T01:55:51;62.55;;;32.25;;
9200;SDS011;4635;48.686;9.008;2022-12-10T02:14:38;68.03;;;32.33;;
9200;SDS011;4635;48.686;9.008;2022-12-10T02:17:33;57.13;;;30.60;;
9200;SDS011;4635;48.686;9.008;2022-12-10T02:20:23;59.77;;;27.63;;
9200;SDS011;4635;48.686;9.008;2022-12-10T02:23:09;65.17;;;31.33;;
9200;SDS011;4635;48.686;9.008;2022-12-10T02:25:56;64.97;;;32.23;;
9200;SDS011;4635;48.686;9.008;2022-12-10T02:28:46;62.27;;;30.90;;
9200;SDS011;4635;48.686;9.008;2022-12-10T02:34:59;64.60;;;32.00;;
9200;SDS011;4635;48.686;9.008;2022-12-10T02:37:45;58.77;;;29.30;;
9200;SDS011;4635;48.686;9.008;2022-12-10T02:40:25;62.97;;;33.30;;
9200;SDS011;4635;48.686;9.008;2022-12-10T02:43:15;60.83;;;32.43;;
9200;SDS011;4635;48.686;9.008;2022-12-10T02:46:26;62.80;;;32.63;;
9200;SDS011;4635;48.686;9.008;2022-12-10T02:49:23;66.33;;;32.03;;
9200;SDS011;4635;48.686;9.008;2022-12-10T02:55:29;76.30;;;37.95;;
9200;SDS011;4635;48.686;9.008;2022-12-10T02:58:22;76.30;;;36.30;;
9200;SDS011;4635;48.686;9.008;2022-12-10T03:01:19;78.73;;;36.90;;
9200;SDS011;4635;48.686;9.008;2022-12-10T03:04:14;76.83;;;34.03;;
9200;SDS011;4635;48.686;9.008;2022-12-10T03:07:00;70.57;;;35.45;;
9200;SDS011;4635;48.686;9.008;2022-12-10T03:09:48;67.50;;;34.90;;
9200;SDS011;4635;48.686;9.008;2022-12-10T03:18:59;63.53;;;32.90;;
9200;SDS011;4635;48.686;9.008;2022-12-10T03:21:47;61.83;;;33.00;;
9200;SDS011;4635;48.686;9.008;2022-12-10T03:24:21;69.93;;;34.13;;
9200;SDS011;4635;48.686;9.008;2022-12-10T03:27:06;74.70;;;34.97;;
9200;SDS011;4635;48.686;9.008;2022-12-10T03:29:54;69.13;;;32.40;;
9200;SDS011;4635;48.686;9.008;2022-12-10T03:32:49;60.47;;;31.33;;
9200;SDS011;4635;48.686;9.008;2022-12-10T03:51:17;56.70;;;29.10;;
9200;SDS011;4635;48.686;9.008;2022-12-10T03:54:05;58.10;;;29.50;;
9200;SDS011;4635;48.686;9.008;2022-12-10T03:56:50;49.60;;;28.00;;
9200;SDS011;4635;48.686;9.008;2022-12-10T03:59:36;60.17;;;28.67;;
9200;SDS011;4635;48.686;9.008;2022-12-10T04:02:28;53.93;;;30.37;;
9200;SDS011;4635;48.686;9.008;2022-12-10T05:08:30;62.70;;;29.67;;
9200;SDS011;4635;48.686;9.008;2022-12-10T05:11:29;71.23;;;29.70;;
9200;SDS011;4635;48.686;9.008;2022-12-10T07:39:25;66.55;;;31.42;;
9200;SDS011;4635;48.686;9.008;2022-12-10T07:42:11;57.90;;;30.73;;
9200;SDS011;4635;48.686;9.008;2022-12-10T07:48:00;63.58;;;31.42;;
9200;SDS011;4635;48.686;9.008;2022-12-10T07:50:37;62.25;;;30.67;;
9200;SDS011;4635;48.686;9.008;2022-12-10T07:53:39;60.00;;;29.70;;
9200;SDS011;4635;48.686;9.008;2022-12-10T08:03:01;55.17;;;31.30;;
9200;SDS011;4635;48.686;9.008;2022-12-10T08:06:21;57.03;;;28.73;;
9200;SDS011;4635;48.686;9.008;2022-12-10T08:09:07;55.83;;;29.10;;
9200;SDS011;4635;48.686;9.008;2022-12-10T08:11:54;61.50;;;32.75;;
9200;SDS011;4635;48.686;9.008;2022-12-10T08:14:32;61.20;;;30.60;;
9200;SDS011;4635;48.686;9.008;2022-12-10T08:17:23;56.30;;;28.63;;
9200;SDS011;4635;48.686;9.008;2022-12-10T08:19:58;57.80;;;27.87;;
9200;SDS011;4635;48.686;9.008;2022-12-10T08:22:45;58.00;;;29.77;;
9200;SDS011;4635;48.686;9.008;2022-12-10T08:25:41;51.30;;;26.50;;
9200;SDS011;4635;48.686;9.008;2022-12-10T08:28:28;62.60;;;27.17;;
9200;SDS011;4635;48.686;9.008;2022-12-10T08:31:55;59.03;;;27.63;;
9200;SDS011;4635;48.686;9.008;2022-12-10T08:44:07;52.27;;;28.03;;
9200;SDS011;4635;48.686;9.008;2022-12-10T08:46:57;56.57;;;28.73;;
9200;SDS011;4635;48.686;9.008;2022-12-10T08:49:42;47.50;;;26.67;;
9200;SDS011;4635;48.686;9.008;2022-12-10T08:52:20;53.07;;;29.50;;
9200;SDS011;4635;48.686;9.008;2022-12-10T08:55:05;51.90;;;27.63;;
9200;SDS011;4635;48.686;9.008;2022-12-10T08:57:52;54.85;;;28.55;;
9200;SDS011;4635;48.686;9.008;2022-12-10T09:00:44;48.07;;;25.03;;
9200;SDS011;4635;48.686;9.008;2022-12-10T09:03:24;52.40;;;27.30;;
9200;SDS011;4635;48.686;9.008;2022-12-10T09:06:17;51.63;;;26.57;;
9200;SDS011;4635;48.686;9.008;2022-12-10T09:09:02;50.55;;;28.65;;
9200;SDS011;4635;48.686;9.008;2022-12-10T09:12:02;49.50;;;27.90;;
9200;SDS011;4635;48.686;9.008;2022-12-10T09:18:11;50.43;;;26.77;;
9200;SDS011;4635;48.686;9.008;2022-12-10T09:21:15;52.73;;;26.33;;
9200;SDS011;4635;48.686;9.008;2022-12-10T09:24:48;62.70;;;29.33;;
9200;SDS011;4635;48.686;9.008;2022-12-10T09:27:32;52.90;;;28.87;;
9200;SDS011;4635;48.686;9.008;2022-12-10T09:40:08;53.63;;;27.90;;
9200;SDS011;4635;48.686;9.008;2022-12-10T09:43:06;49.93;;;26.03;;
9200;SDS011;4635;48.686;9.008;2022-12-10T09:46:21;47.20;;;24.60;;
9200;SDS011;4635;48.686;9.008;2022-12-10T09:49:06;51.87;;;28.20;;
9200;SDS011;4635;48.686;9.008;2022-12-10T09:52:26;48.63;;;24.30;;
9200;SDS011;4635;48.686;9.008;2022-12-10T10:01:24;53.67;;;28.30;;
9200;SDS011;4635;48.686;9.008;2022-12-10T10:04:04;45.70;;;24.20;;
9200;SDS011;4635;48.686;9.008;2022-12-10T10:06:42;48.83;;;28.40;;
9200;SDS011;4635;48.686;9.008;2022-12-10T10:09:20;50.40;;;26.67;;
9200;SDS011;4635;48.686;9.008;2022-12-10T10:12:11;48.50;;;27.87;;
9200;SDS011;4635;48.686;9.008;2022-12-10T10:15:15;44.17;;;25.13;;
9200;SDS011;4635;48.686;9.008;2022-12-10T10:18:37;44.57;;;23.80;;
9200;SDS011;4635;48.686;9.008;2022-12-10T10:22:05;52.03;;;27.33;;
9200;SDS011;4635;48.686;9.008;2022-12-10T10:24:59;50.85;;;28.27;;
9200;SDS011;4635;48.686;9.008;2022-12-10T10:28:15;48.63;;;26.53;;
9200;SDS011;4635;48.686;9.008;2022-12-10T10:31:08;49.90;;;25.20;;
9200;SDS011;4635;48.686;9.008;2022-12-10T10:34:15;42.90;;;24.17;;
9200;SDS011;4635;48.686;9.008;2022-12-10T10:36:54;50.37;;;25.40;;
9200;SDS011;4635;48.686;9.008;2022-12-10T10:39:42;43.10;;;25.63;;
9200;SDS011;4635;48.686;9.008;2022-12-10T10:42:38;48.07;;;26.93;;
9200;SDS011;4635;48.686;9.008;2022-12-10T10:45:35;43.90;;;24.23;;
9200;SDS011;4635;48.686;9.008;2022-12-10T10:48:22;52.03;;;24.70;;
9200;SDS011;4635;48.686;9.008;2022-12-10T10:54:37;42.13;;;22.83;;
9200;SDS011;4635;48.686;9.008;2022-12-10T10:57:32;40.67;;;21.43;;
9200;SDS011;4635;48.686;9.008;2022-12-10T11:00:22;41.83;;;22.70;;
9200;SDS011;4635;48.686;9.008;2022-12-10T11:03:19;43.33;;;23.37;;
9200;SDS011;4635;48.686;9.008;2022-12-10T11:06:18;51.20;;;25.50;;
9200;SDS011;4635;48.686;9.008;2022-12-10T11:12:44;39.53;;;23.67;;
9200;SDS011;4635;48.686;9.008;2022-12-10T11:15:41;36.97;;;22.90;;
9200;SDS011;4635;48.686;9.008;2022-12-10T11:19:23;41.33;;;21.47;;
9200;SDS011;4635;48.686;9.008;2022-12-10T11:22:14;39.30;;;21.80;;
9200;SDS011;4635;48.686;9.008;2022-12-10T11:25:10;39.67;;;22.23;;
9200;SDS011;4635;48.686;9.008;2022-12-10T11:28:25;37.73;;;21.43;;
9200;SDS011;4635;48.686;9.008;2022-12-10T11:31:42;39.10;;;23.83;;
9200;SDS011;4635;48.686;9.008;2022-12-10T11:37:58;37.10;;;22.00;;
9200;SDS011;4635;48.686;9.008;2022-12-10T11:40:59;41.03;;;23.53;;
9200;SDS011;4635;48.686;9.008;2022-12-10T11:44:10;39.13;;;21.40;;
9200;SDS011;4635;48.686;9.008;2022-12-10T11:50:25;37.93;;;20.03;;
9200;SDS011;4635;48.686;9.008;2022-12-10T12:08:32;37.67;;;20.20;;
9200;SDS011;4635;48.686;9.008;2022-12-10T12:11:31;37.17;;;21.27;;
9200;SDS011;4635;48.686;9.008;2022-12-10T12:14:27;32.77;;;20.17;;
9200;SDS011;4635;48.686;9.008;2022-12-10T12:17:16;35.77;;;22.30;;
9200;SDS011;4635;48.686;9.008;2022-12-10T12:20:28;38.97;;;20.03;;
9200;SDS011;4635;48.686;9.008;2022-12-10T12:23:26;30.80;;;19.20;;
9200;SDS011;4635;48.686;9.008;2022-12-10T12:29:06;35.70;;;20.30;;
9200;SDS011;4635;48.686;9.008;2022-12-10T12:34:48;30.00;;;19.10;;
9200;SDS011;4635;48.686;9.008;2022-12-10T12:37:25;40.80;;;20.37;;
9200;SDS011;4635;48.686;9.008;2022-12-10T13:04:04;29.97;;;17.93;;
9200;SDS011;4635;48.686;9.008;2022-12-10T13:10:42;29.63;;;18.30;;
9200;SDS011;4635;48.686;9.008;2022-12-10T13:20:40;32.53;;;17.33;;
9200;SDS011;4635;48.686;9.008;2022-12-10T13:27:27;29.30;;;18.23;;
9200;SDS011;4635;48.686;9.008;2022-12-10T13:33:25;33.30;;;19.43;;
9200;SDS011;4635;48.686;9.008;2022-12-10T13:43:23;30.60;;;18.63;;
9200;SDS011;4635;48.686;9.008;2022-12-10T13:46:20;40.03;;;18.17;;
9200;SDS011;4635;48.686;9.008;2022-12-10T13:49:28;31.57;;;17.97;;
9200;SDS011;4635;48.686;9.008;2022-12-10T13:52:33;31.20;;;17.60;;
9200;SDS011;4635;48.686;9.008;2022-12-10T13:58:57;33.07;;;18.47;;
9200;SDS011;4635;48.686;9.008;2022-12-10T14:04:30;33.67;;;19.10;;
9200;SDS011;4635;48.686;9.008;2022-12-10T15:18:21;31.63;;;17.97;;
9200;SDS011;4635;48.686;9.008;2022-12-10T15:24:36;32.67;;;19.30;;
9200;SDS011;4635;48.686;9.008;2022-12-10T15:27:51;37.03;;;19.73;;
9200;SDS011;4635;48.686;9.008;2022-12-10T15:31:09;43.40;;;22.10;;
9200;SDS011;4635;48.686;9.008;2022-12-10T15:54:38;42.13;;;20.73;;
9200;SDS011;4635;48.686;9.008;2022-12-10T15:57:26;42.40;;;22.13;;
9200;SDS011;4635;48.686;9.008;2022-12-10T16:04:10;44.63;;;21.83;;
9200;SDS011;4635;48.686;9.008;2022-12-10T16:17:15;42.00;;;21.07;;
9200;SDS011;4635;48.686;9.008;2022-12-10T16:20:21;35.77;;;21.87;;
9200;SDS011;4635;48.686;9.008;2022-12-10T16:23:53;48.35;;;23.75;;
9200;SDS011;4635;48.686;9.008;2022-12-10T17:26:03;37.42;;;21.83;;
9200;SDS011;4635;48.686;9.008;2022-12-10T17:29:12;37.25;;;20.88;;
9200;SDS011;4635;48.686;9.008;2022-12-10T17:32:23;39.15;;;21.15;;
9200;SDS011;4635;48.686;9.008;2022-12-10T17:35:33;43.53;;;23.58;;
9200;SDS011;4635;48.686;9.008;2022-12-10T17:38:31;42.88;;;22.35;;
9200;SDS011;4635;48.686;9.008;2022-12-10T17:44:34;39.73;;;23.70;;
9200;SDS011;4635;48.686;9.008;2022-12-10T17:47:28;34.63;;;20.10;;
9200;SDS011;4635;48.686;9.008;2022-12-10T17:51:02;42.73;;;23.00;;
9200;SDS011;4635;48.686;9.008;2022-12-10T17:55:56;38.60;;;21.77;;
9200;SDS011;4635;48.686;9.008;2022-12-10T17:57:07;41.03;;;22.13;;
9200;SDS011;4635;48.686;9.008;2022-12-10T18:03:47;40.50;;;21.90;;
9200;SDS011;4635;48.686;9.008;2022-12-10T18:07:01;42.42;;;22.70;;
9200;SDS011;4635;48.686;9.008;2022-12-10T18:10:33;41.23;;;23.83;;
9200;SDS011;4635;48.686;9.008;2022-12-10T18:13:29;37.72;;;20.98;;
9200;SDS011;4635;48.686;9.008;2022-12-10T18:16:40;36.13;;;20.40;;
9200;SDS011;4635;48.686;9.008;2022-12-10T18:27:10;41.47;;;21.10;;
9200;SDS011;4635;48.686;9.008;2022-12-10T18:30:57;32.42;;;18.70;;
9200;SDS011;4635;48.686;9.008;2022-12-10T18:35:02;34.30;;;20.67;;
9200;SDS011;4635;48.686;9.008;2022-12-10T18:36:50;35.65;;;21.58;;
9200;SDS011;4635;48.686;9.008;2022-12-10T18:39:55;43.30;;;22.35;;
9200;SDS011;4635;48.686;9.008;2022-12-10T19:08:22;39.70;;;22.73;;
9200;SDS011;4635;48.686;9.008;2022-12-10T19:10:58;37.47;;;21.50;;
9200;SDS011;4635;48.686;9.008;2022-12-10T19:13:43;39.42;;;23.33;;
9200;SDS011;4635;48.686;9.008;2022-12-10T19:22:34;41.37;;;21.67;;
9200;SDS011;4635;48.686;9.008;2022-12-10T19:25:11;48.97;;;23.27;;
9200;SDS011;4635;48.686;9.008;2022-12-10T19:27:58;41.60;;;20.83;;
9200;SDS011;4635;48.686;9.008;2022-12-10T19:30:40;43.77;;;22.50;;
9200;SDS011;4635;48.686;9.008;2022-12-10T19:33:24;35.67;;;19.73;;
9200;SDS011;4635;48.686;9.008;2022-12-10T19:36:10;39.90;;;21.40;;
9200;SDS011;4635;48.686;9.008;2022-12-10T19:38:55;38.75;;;22.17;;
9200;SDS011;4635;48.686;9.008;2022-12-10T19:48:07;41.40;;;20.83;;
9200;SDS011;4635;48.686;9.008;2022-12-10T19:51:06;42.72;;;22.05;;
9200;SDS011;4635;48.686;9.008;2022-12-10T19:53:41;37.33;;;19.80;;
9200;SDS011;4635;48.686;9.008;2022-12-10T19:56:29;38.20;;;20.30;;
9200;SDS011;4635;48.686;9.008;2022-12-10T19:59:31;44.67;;;23.73;;
9200;SDS011;4635;48.686;9.008;2022-12-10T20:02:09;38.95;;;21.70;;
9200;SDS011;4635;48.686;9.008;2022-12-10T20:04:45;38.80;;;21.77;;
9200;SDS011;4635;48.686;9.008;2022-12-10T20:07:37;47.78;;;25.45;;
9200;SDS011;4635;48.686;9.008;2022-12-10T20:10:17;41.53;;;21.58;;
9200;SDS011;4635;48.686;9.008;2022-12-10T20:13:12;34.47;;;21.58;;
9200;SDS011;4635;48.686;9.008;2022-12-10T20:15:51;36.90;;;21.25;;
9200;SDS011;4635;48.686;9.008;2022-12-10T20:19:04;41.30;;;21.83;;
9200;SDS011;4635;48.686;9.008;2022-12-10T20:21:37;46.58;;;25.58;;
9200;SDS011;4635;48.686;9.008;2022-12-10T20:24:37;37.22;;;20.98;;
9200;SDS011;4635;48.686;9.008;2022-12-10T20:27:11;34.72;;;19.05;;
9200;SDS011;4635;48.686;9.008;2022-12-10T20:30:26;38.53;;;22.17;;
9200;SDS011;4635;48.686;9.008;2022-12-10T20:33:06;34.20;;;19.20;;
9200;SDS011;4635;48.686;9.008;2022-12-10T20:35:41;41.00;;;19.58;;
9200;SDS011;4635;48.686;9.008;2022-12-10T20:38:27;39.28;;;20.60;;
9200;SDS011;4635;48.686;9.008;2022-12-10T20:41:04;36.35;;;19.77;;
9200;SDS011;4635;48.686;9.008;2022-12-10T20:43:47;33.60;;;18.43;;
9200;SDS011;4635;48.686;9.008;2022-12-10T20:49:23;43.88;;;23.23;;
9200;SDS011;4635;48.686;9.008;2022-12-10T20:54:56;42.03;;;23.10;;
9200;SDS011;4635;48.686;9.008;2022-12-10T20:58:07;44.85;;;21.70;;
9200;SDS011;4635;48.686;9.008;2022-12-10T21:01:10;37.17;;;19.80;;
9200;SDS011;4635;48.686;9.008;2022-12-10T21:04:12;40.42;;;22.23;;
9200;SDS011;4635;48.686;9.008;2022-12-10T21:06:48;47.63;;;24.23;;
9200;SDS011;4635;48.686;9.008;2022-12-10T21:09:33;48.80;;;26.75;;
9200;SDS011;4635;48.686;9.008;2022-12-10T21:12:11;43.20;;;23.60;;
9200;SDS011;4635;48.686;9.008;2022-12-10T21:15:02;43.42;;;24.20;;
9200;SDS011;4635;48.686;9.008;2022-12-10T21:17:32;39.65;;;20.33;;
9200;SDS011;4635;48.686;9.008;2022-12-10T21:20:14;37.75;;;20.33;;
9200;SDS011;4635;48.686;9.008;2022-12-10T21:22:44;40.58;;;21.90;;
9200;SDS011;4635;48.686;9.008;2022-12-10T21:25:17;37.78;;;21.52;;
9200;SDS011;4635;48.686;9.008;2022-12-10T21:28:03;40.53;;;22.13;;
9200;SDS011;4635;48.686;9.008;2022-12-10T21:30:35;39.63;;;21.58;;
9200;SDS011;4635;48.686;9.008;2022-12-10T21:33:16;36.08;;;20.90;;
9200;SDS011;4635;48.686;9.008;2022-12-10T21:35:57;40.60;;;20.85;;
9200;SDS011;4635;48.686;9.008;2022-12-10T21:38:46;39.13;;;21.55;;
9200;SDS011;4635;48.686;9.008;2022-12-10T21:41:18;40.63;;;21.80;;
9200;SDS011;4635;48.686;9.008;2022-12-10T21:44:07;42.70;;;22.27;;
9200;SDS011;4635;48.686;9.008;2022-12-10T21:46:38;41.47;;;23.13;;
9200;SDS011;4635;48.686;9.008;2022-12-10T21:49:08;45.65;;;23.13;;
9200;SDS011;4635;48.686;9.008;2022-12-10T21:51:54;40.38;;;21.67;;
9200;SDS011;4635;48.686;9.008;2022-12-10T21:54:27;51.88;;;25.15;;
9200;SDS011;4635;48.686;9.008;2022-12-10T21:57:00;41.55;;;23.02;;
9200;SDS011;4635;48.686;9.008;2022-12-10T21:59:36;38.35;;;20.95;;
9200;SDS011;4635;48.686;9.008;2022-12-10T22:02:08;44.83;;;23.30;;
9200;SDS011;4635;48.686;9.008;2022-12-10T22:04:38;42.45;;;22.63;;
9200;SDS011;4635;48.686;9.008;2022-12-10T22:07:23;46.00;;;24.48;;
9200;SDS011;4635;48.686;9.008;2022-12-10T22:09:55;43.95;;;22.83;;
9200;SDS011;4635;48.686;9.008;2022-12-10T22:12:26;43.15;;;23.08;;
9200;SDS011;4635;48.686;9.008;2022-12-10T22:15:06;46.08;;;22.80;;
9200;SDS011;4635;48.686;9.008;2022-12-10T22:17:52;46.60;;;24.17;;
9200;SDS011;4635;48.686;9.008;2022-12-10T22:20:27;50.80;;;24.98;;
9200;SDS011;4635;48.686;9.008;2022-12-10T22:22:59;48.40;;;24.67;;
9200;SDS011;4635;48.686;9.008;2022-12-10T22:25:34;47.95;;;24.63;;
9200;SDS011;4635;48.686;9.008;2022-12-10T22:28:16;56.25;;;28.35;;
9200;SDS011;4635;48.686;9.008;2022-12-10T22:30:52;50.95;;;25.63;;
9200;SDS011;4635;48.686;9.008;2022-12-10T22:33:24;50.03;;;24.98;;
9200;SDS011;4635;48.686;9.008;2022-12-10T22:39:03;45.55;;;22.75;;
9200;SDS011;4635;48.686;9.008;2022-12-10T22:41:42;43.00;;;23.40;;
9200;SDS011;4635;48.686;9.008;2022-12-10T22:44:15;43.08;;;25.40;;
9200;SDS011;4635;48.686;9.008;2022-12-10T22:46:52;47.65;;;22.17;;
9200;SDS011;4635;48.686;9.008;2022-12-10T22:49:26;38.13;;;22.83;;
9200;SDS011;4635;48.686;9.008;2022-12-10T22:51:57;40.20;;;22.23;;
9200;SDS011;4635;48.686;9.008;2022-12-10T22:54:43;40.13;;;21.55;;
9200;SDS011;4635;48.686;9.008;2022-12-10T22:57:20;41.17;;;22.05;;
9200;SDS011;4635;48.686;9.008;2022-12-10T23:00:07;43.40;;;23.27;;
9200;SDS011;4635;48.686;9.008;2022-12-10T23:02:45;48.80;;;25.00;;
9200;SDS011;4635;48.686;9.008;2022-12-10T23:05:24;51.13;;;25.95;;
9200;SDS011;4635;48.686;9.008;2022-12-10T23:08:00;60.05;;;27.98;;
9200;SDS011;4635;48.686;9.008;2022-12-10T23:10:38;41.30;;;23.65;;
9200;SDS011;4635;48.686;9.008;2022-12-10T23:13:20;43.95;;;23.85;;
9200;SDS011;4635;48.686;9.008;2022-12-10T23:15:53;48.33;;;26.20;;
9200;SDS011;4635;48.686;9.008;2022-12-10T23:18:30;47.25;;;24.77;;
9200;SDS011;4635;48.686;9.008;2022-12-10T23:21:11;49.00;;;23.35;;
9200;SDS011;4635;48.686;9.008;2022-12-10T23:24:07;44.35;;;23.15;;
9200;SDS011;4635;48.686;9.008;2022-12-10T23:26:42;42.63;;;22.40;;
9200;SDS011;4635;48.686;9.008;2022-12-10T23:29:21;50.10;;;25.42;;
9200;SDS011;4635;48.686;9.008;2022-12-10T23:32:15;48.95;;;22.20;;
9200;SDS011;4635;48.686;9.008;2022-12-10T23:34:57;39.17;;;22.55;;
9200;SDS011;4635;48.686;9.008;2022-12-10T23:37:29;45.42;;;24.52;;
9200;SDS011;4635;48.686;9.008;2022-12-10T23:40:12;45.95;;;22.70;;
9200;SDS011;4635;48.686;9.008;2022-12-10T23:42:49;45.63;;;22.48;;
9200;SDS011;4635;48.686;9.008;2022-12-10T23:45:20;39.72;;;21.73;;
9200;SDS011;4635;48.686;9.008;2022-12-10T23:47:48;50.72;;;23.98;;
9200;SDS011;4635;48.686;9.008;2022-12-10T23:50:21;41.20;;;21.38;;
9200;SDS011;4635;48.686;9.008;2022-12-10T23:52:52;38.25;;;20.95;;
9200;SDS011;4635;48.686;9.008;2022-12-10T23:55:26;37.22;;;21.77;;
9200;SDS011;4635;48.686;9.008;2022-12-10T23:58:02;33.65;;;19.50;;
